Wausau, Wisconsin
Current Conditions -  °F | °C
As of 4:54 PM on Monday 24 Nov 2014 (Local Time) from KAUW Reporting Station
Light Snow Light Snow  
Wind Chill: 15°   Ceiling: 1200
Heat Index: 27°   Visibility: 1mi
Dew Point: 24°   Wind: 15mph
Humidity: 89%   Direction: 320°NW
Pressure: 29.37"   Gusts: 25mph
Location:  44.96°N, 89.63°W
Report Text: KAUW 242254Z AUTO 32013G22KT 1SM -SN BR VV012 M03/M04 A2937 RMK AO2 PK WND 33028/2230 SLP961 P0001 T10281044
Loading
Personal Weather Stations






























Interactive Weather Map New forecast layout! Learn more

10-Day Weather Forecast

Advertisements
Track Severe Weather on mobile